createdAt,value
2018-02-05T00:00:17.478Z,30.92
2018-02-05T00:01:21.105Z,36.67
2018-02-05T00:02:24.897Z,41.83
2018-02-05T00:03:29.420Z,57.08
2018-02-05T00:04:34.256Z,35.53
2018-02-05T00:05:37.907Z,34.92
2018-02-05T00:06:41.379Z,33.63
2018-02-05T00:07:45.280Z,29.83
2018-02-05T00:08:48.884Z,28.85
2018-02-05T00:09:52.735Z,34.80
2018-02-05T00:10:56.267Z,41.30
2018-02-05T00:11:59.975Z,30.40
2018-02-05T00:13:04.203Z,34.70
2018-02-05T00:14:08.002Z,29.85
2018-02-05T00:15:11.764Z,31.10
2018-02-05T00:16:15.449Z,32.95
2018-02-05T00:17:19.314Z,35.88
2018-02-05T00:18:22.815Z,29.65
2018-02-05T00:19:26.626Z,28.83
2018-02-05T00:20:30.213Z,32.33
2018-02-05T00:21:34.038Z,30.45
2018-02-05T00:22:38.522Z,30.88
2018-02-05T00:23:42.121Z,28.70
2018-02-05T00:24:46.021Z,29.52
2018-02-05T00:25:49.647Z,29.75
2018-02-05T00:26:54.029Z,33.58
2018-02-05T00:27:58.059Z,37.55
2018-02-05T00:29:01.679Z,31.85
2018-02-05T00:30:05.329Z,38.13
2018-02-05T00:31:08.928Z,30.65
2018-02-05T00:32:12.459Z,37.35
2018-02-05T00:33:16.093Z,31.73
2018-02-05T00:34:20.709Z,37.47
2018-02-05T00:35:24.494Z,37.40
2018-02-05T00:36:28.179Z,32.45
2018-02-05T00:37:31.811Z,30.77
2018-02-05T00:38:36.275Z,34.88
2018-02-05T00:39:40.117Z,32.10
2018-02-05T00:40:43.590Z,33.85
2018-02-05T00:41:48.297Z,38.55
2018-02-05T00:42:52.241Z,33.65
2018-02-05T00:43:56.328Z,27.45
2018-02-05T00:45:00.204Z,32.13
2018-02-05T00:46:03.928Z,30.88
2018-02-05T00:47:08.409Z,30.60
2018-02-05T00:48:12.104Z,32.58
2018-02-05T00:49:16.586Z,34.60
2018-02-05T00:50:21.054Z,34.67
2018-02-05T00:51:24.803Z,29.37
2018-02-05T00:52:28.627Z,32.45
2018-02-05T00:53:33.054Z,35.35
2018-02-05T00:54:37.689Z,34.13
2018-02-05T00:55:41.724Z,33.50
2018-02-05T00:56:45.403Z,33.88
2018-02-05T00:57:49.057Z,36.65
2018-02-05T00:58:53.315Z,31.27
2018-02-05T00:59:57.122Z,38.88
2018-02-05T01:01:00.984Z,34.78
2018-02-05T01:02:05.487Z,33.40
2018-02-05T01:03:10.097Z,34.78
2018-02-05T01:04:13.762Z,39.15
2018-02-05T01:05:17.546Z,35.20
2018-02-05T01:06:21.939Z,43.00
2018-02-05T01:07:25.523Z,36.85
2018-02-05T01:08:30.043Z,34.10
2018-02-05T01:09:33.826Z,35.00
2018-02-05T01:10:37.637Z,36.05
2018-02-05T01:11:41.142Z,31.65
2018-02-05T01:12:45.364Z,34.83
2018-02-05T01:13:49.892Z,31.02
2018-02-05T01:14:53.674Z,30.92
2018-02-05T01:15:58.354Z,31.83
2018-02-05T01:17:02.155Z,37.78
2018-02-05T01:18:05.889Z,36.05
2018-02-05T01:19:09.646Z,32.38
2018-02-05T01:20:13.264Z,31.55
2018-02-05T01:21:17.147Z,34.47
2018-02-05T01:22:21.603Z,35.50
2018-02-05T01:23:25.659Z,33.20
2018-02-05T01:24:29.456Z,30.67
2018-02-05T01:25:33.072Z,30.60
2018-02-05T01:26:36.899Z,33.50
2018-02-05T01:27:41.010Z,32.45
2018-02-05T01:28:44.766Z,32.88
2018-02-05T01:29:49.044Z,34.13
2018-02-05T01:30:52.759Z,33.10
2018-02-05T01:31:57.367Z,32.17
2018-02-05T01:33:01.130Z,31.83
2018-02-05T01:34:04.806Z,32.60
2018-02-05T01:35:08.725Z,35.70
2018-02-05T01:36:12.381Z,34.58
2018-02-05T01:37:15.922Z,30.27
2018-02-05T01:38:20.034Z,28.73
2018-02-05T01:39:23.837Z,28.77
2018-02-05T01:40:27.689Z,38.00
2018-02-05T01:41:31.398Z,31.48
2018-02-05T01:42:35.090Z,32.95
2018-02-05T01:43:38.674Z,30.00
2018-02-05T01:44:42.649Z,30.27
2018-02-05T01:45:46.515Z,28.92
2018-02-05T01:46:53.494Z,33.15
2018-02-05T01:47:59.102Z,32.55
2018-02-05T01:49:04.386Z,31.67
2018-02-05T01:50:11.188Z,30.42
2018-02-05T01:51:16.818Z,29.67
2018-02-05T01:52:22.817Z,30.85
2018-02-05T01:53:28.919Z,33.38
2018-02-05T01:54:34.444Z,27.23
2018-02-05T01:55:39.843Z,27.00
2018-02-05T01:56:45.558Z,26.50
2018-02-05T01:57:51.809Z,30.20
2018-02-05T01:58:57.364Z,29.98
2018-02-05T02:00:03.641Z,33.88
2018-02-05T02:01:07.193Z,33.35
2018-02-05T02:02:10.725Z,35.83
2018-02-05T02:03:14.472Z,31.77
2018-02-05T02:04:18.197Z,34.60
2018-02-05T02:05:22.370Z,31.95
2018-02-05T02:06:25.956Z,28.55
2018-02-05T02:07:29.857Z,33.25
2018-02-05T02:08:33.560Z,28.20
2018-02-05T02:09:37.124Z,32.80
2018-02-05T02:10:40.825Z,30.30
2018-02-05T02:11:44.639Z,30.20
2018-02-05T02:12:48.118Z,27.08
2018-02-05T02:13:51.857Z,32.85
2018-02-05T02:14:55.558Z,33.35
2018-02-05T02:15:59.247Z,28.50
2018-02-05T02:17:03.189Z,29.55
2018-02-05T02:18:06.994Z,31.70
2018-02-05T02:19:11.187Z,30.62
2018-02-05T02:20:14.804Z,32.45
2018-02-05T02:21:19.041Z,29.67
2018-02-05T02:22:22.982Z,32.97
2018-02-05T02:23:26.554Z,28.45
2018-02-05T02:24:30.419Z,30.67
2018-02-05T02:25:35.005Z,27.60
2018-02-05T02:26:38.608Z,29.25
2018-02-05T02:27:42.236Z,31.23
2018-02-05T02:28:45.785Z,30.42
2018-02-05T02:29:49.371Z,30.00
2018-02-05T02:30:53.119Z,31.23
2018-02-05T02:31:56.563Z,28.77
2018-02-05T02:33:00.432Z,31.17
2018-02-05T02:34:04.211Z,29.02
2018-02-05T02:35:07.988Z,29.25
2018-02-05T02:36:11.638Z,28.73
2018-02-05T02:37:15.326Z,28.23
2018-02-05T02:38:18.825Z,32.03
2018-02-05T02:39:22.657Z,22.23
2018-02-05T02:40:26.493Z,26.33
2018-02-05T02:41:30.044Z,24.08
2018-02-05T02:42:33.585Z,27.98
2018-02-05T02:43:37.354Z,26.60
2018-02-05T02:44:41.000Z,29.27
2018-02-05T02:45:45.596Z,25.58
2018-02-05T02:46:49.230Z,30.60
2018-02-05T02:47:53.789Z,25.65
2018-02-05T02:48:57.765Z,30.42
2018-02-05T02:50:01.414Z,28.62
2018-02-05T02:51:05.788Z,25.05
2018-02-05T02:52:09.631Z,24.12
2018-02-05T02:53:13.579Z,26.77
2018-02-05T02:54:17.018Z,26.00
2018-02-05T02:55:20.968Z,28.15
2018-02-05T02:56:24.670Z,24.52
2018-02-05T02:57:28.359Z,27.30
2018-02-05T02:58:32.013Z,24.02
2018-02-05T02:59:35.533Z,27.85
2018-02-05T03:00:39.216Z,28.65
2018-02-05T03:01:43.747Z,26.85
2018-02-05T03:02:47.251Z,26.00
2018-02-05T03:03:50.858Z,25.65
2018-02-05T03:04:55.449Z,25.92
2018-02-05T03:05:59.293Z,27.25
2018-02-05T03:07:02.904Z,26.95
2018-02-05T03:08:06.834Z,27.25
2018-02-05T03:09:10.560Z,24.00
2018-02-05T03:10:14.861Z,24.55
2018-02-05T03:11:19.449Z,26.02
2018-02-05T03:12:23.164Z,26.85
2018-02-05T03:13:27.460Z,26.30
2018-02-05T03:14:32.844Z,24.37
2018-02-05T03:15:36.393Z,26.30
2018-02-05T03:16:39.866Z,25.75
2018-02-05T03:17:43.742Z,26.48
2018-02-05T03:18:47.556Z,26.20
2018-02-05T03:19:51.355Z,23.40
2018-02-05T03:20:55.031Z,29.37
2018-02-05T03:21:58.797Z,25.35
2018-02-05T03:23:03.240Z,24.23
2018-02-05T03:24:07.065Z,27.75
2018-02-05T03:25:10.623Z,26.30
2018-02-05T03:26:14.767Z,25.37
2018-02-05T03:27:19.365Z,25.27
2018-02-05T03:28:22.979Z,25.30
2018-02-05T03:29:27.296Z,25.40
2018-02-05T03:30:31.919Z,23.98
2018-02-05T03:31:35.509Z,26.90
2018-02-05T03:32:40.148Z,28.42
2018-02-05T03:33:43.547Z,24.08
2018-02-05T03:34:47.623Z,26.83
2018-02-05T03:35:52.651Z,29.95
2018-02-05T03:36:56.484Z,26.25
2018-02-05T03:38:00.168Z,29.83
2018-02-05T03:39:03.971Z,28.20
2018-02-05T03:40:08.109Z,26.65
2018-02-05T03:41:12.591Z,28.05
2018-02-05T03:42:15.992Z,28.10
2018-02-05T03:43:19.593Z,27.17
2018-02-05T03:44:23.444Z,31.33
2018-02-05T03:45:27.054Z,29.35
2018-02-05T03:46:30.806Z,27.25
2018-02-05T03:47:35.360Z,26.37
2018-02-05T03:48:39.341Z,26.60
2018-02-05T03:49:43.004Z,25.02
2018-02-05T03:50:47.262Z,30.15
2018-02-05T03:51:50.750Z,30.35
2018-02-05T03:52:54.496Z,27.17
2018-02-05T03:53:58.775Z,25.88
2018-02-05T03:55:03.372Z,24.63
2018-02-05T03:56:07.162Z,26.00
2018-02-05T03:57:10.985Z,25.37
2018-02-05T03:58:14.753Z,25.60
2018-02-05T03:59:18.911Z,24.90
2018-02-05T04:00:22.531Z,29.33
2018-02-05T04:01:26.480Z,25.52
2018-02-05T04:02:30.327Z,25.85
2018-02-05T04:03:33.903Z,27.05
2018-02-05T04:04:38.264Z,23.75
2018-02-05T04:05:42.330Z,25.45
2018-02-05T04:06:51.679Z,27.50
2018-02-05T04:07:55.400Z,25.80
2018-02-05T04:08:58.811Z,26.62
2018-02-05T04:10:02.467Z,26.15
2018-02-05T04:11:06.991Z,23.05
2018-02-05T04:12:10.552Z,25.52
2018-02-05T04:13:14.103Z,23.58
2018-02-05T04:14:17.838Z,24.42
2018-02-05T04:15:22.088Z,25.83
2018-02-05T04:16:26.625Z,23.80
2018-02-05T04:17:30.349Z,25.62
2018-02-05T04:18:33.922Z,27.67
2018-02-05T04:19:38.167Z,24.35
2018-02-05T04:20:42.182Z,26.15
2018-02-05T04:21:46.660Z,25.30
2018-02-05T04:22:50.249Z,23.30
2018-02-05T04:23:53.965Z,24.48
2018-02-05T04:24:57.470Z,25.45
2018-02-05T04:26:01.980Z,26.30
2018-02-05T04:27:06.371Z,29.48
2018-02-05T04:28:10.074Z,24.98
2018-02-05T04:29:14.364Z,28.77
2018-02-05T04:30:18.128Z,26.52
2018-02-05T04:31:21.828Z,26.67
2018-02-05T04:32:26.347Z,27.83
2018-02-05T04:33:30.049Z,29.48
2018-02-05T04:34:33.680Z,25.92
2018-02-05T04:35:37.460Z,25.02
2018-02-05T04:36:41.188Z,25.60
2018-02-05T04:37:45.725Z,27.27
2018-02-05T04:38:49.373Z,22.98
2018-02-05T04:39:52.931Z,27.80
2018-02-05T04:40:56.671Z,26.27
2018-02-05T04:42:00.265Z,26.35
2018-02-05T04:43:04.634Z,28.83
2018-02-05T04:44:08.474Z,27.35
2018-02-05T04:45:12.649Z,26.75
2018-02-05T04:46:17.139Z,25.52
2018-02-05T04:47:20.841Z,23.62
2018-02-05T04:48:25.380Z,26.25
2018-02-05T04:49:29.304Z,27.33
2018-02-05T04:50:33.170Z,25.67
2018-02-05T04:51:36.657Z,25.27
2018-02-05T04:52:40.252Z,29.25
2018-02-05T04:53:43.960Z,24.15
2018-02-05T04:54:47.850Z,24.80
2018-02-05T04:55:51.511Z,27.48
2018-02-05T04:56:55.428Z,31.55
2018-02-05T04:57:59.045Z,25.75
2018-02-05T04:59:03.611Z,25.52
2018-02-05T05:00:07.810Z,25.37
2018-02-05T05:01:11.397Z,28.23
2018-02-05T05:02:15.277Z,27.48
2018-02-05T05:03:19.118Z,28.33
2018-02-05T05:04:22.671Z,26.50
2018-02-05T05:05:26.453Z,24.15
2018-02-05T05:06:29.988Z,25.37
2018-02-05T05:07:33.687Z,25.48
2018-02-05T05:08:37.995Z,25.00
2018-02-05T05:09:41.851Z,25.45
2018-02-05T05:10:45.472Z,23.60
2018-02-05T05:11:49.206Z,25.40
2018-02-05T05:12:53.163Z,24.70
2018-02-05T05:13:56.663Z,24.73
2018-02-05T05:15:00.935Z,29.83
2018-02-05T05:16:04.593Z,27.87
2018-02-05T05:17:08.231Z,24.85
2018-02-05T05:18:11.859Z,24.75
2018-02-05T05:19:16.243Z,28.25
2018-02-05T05:20:19.919Z,26.83
2018-02-05T05:21:23.822Z,24.45
2018-02-05T05:22:27.361Z,26.45
2018-02-05T05:23:31.246Z,24.55
2018-02-05T05:24:35.789Z,25.98
2018-02-05T05:25:39.412Z,28.15
2018-02-05T05:26:43.048Z,25.10
2018-02-05T05:27:47.673Z,25.37
2018-02-05T05:28:51.207Z,28.40
2018-02-05T05:29:55.036Z,23.48
2018-02-05T05:30:59.633Z,21.65
2018-02-05T05:32:02.901Z,25.85
2018-02-05T05:33:06.773Z,25.85
2018-02-05T05:34:11.184Z,23.58
2018-02-05T05:35:14.696Z,25.12
2018-02-05T05:36:18.328Z,28.65
2018-02-05T05:37:23.015Z,26.92
2018-02-05T05:38:26.893Z,25.65
2018-02-05T05:39:31.306Z,24.12
2018-02-05T05:40:35.622Z,22.37
2018-02-05T05:41:39.322Z,24.37
2018-02-05T05:42:43.123Z,26.15
2018-02-05T05:43:47.572Z,28.90
2018-02-05T05:44:52.610Z,28.90
2018-02-05T05:45:56.441Z,28.17
2018-02-05T05:47:00.100Z,24.33
2018-02-05T05:48:03.716Z,25.70
2018-02-05T05:49:07.231Z,26.52
2018-02-05T05:50:11.026Z,22.60
2018-02-05T05:51:14.803Z,25.33
2018-02-05T05:52:18.403Z,23.27
2018-02-05T05:53:22.125Z,26.40
2018-02-05T05:54:25.684Z,23.95
2018-02-05T05:55:29.387Z,25.25
2018-02-05T05:56:33.245Z,25.20
2018-02-05T05:57:36.963Z,25.52
2018-02-05T05:58:40.600Z,25.45
2018-02-05T05:59:45.079Z,26.27
2018-02-05T06:00:48.892Z,27.30
2018-02-05T06:01:52.561Z,26.23
2018-02-05T06:02:56.268Z,22.80
2018-02-05T06:04:00.017Z,25.40
2018-02-05T06:05:03.768Z,26.27
2018-02-05T06:06:07.388Z,28.30
2018-02-05T06:07:11.874Z,27.40
2018-02-05T06:08:15.308Z,25.23
2018-02-05T06:09:19.252Z,26.42
2018-02-05T06:10:23.037Z,24.05
2018-02-05T06:11:26.626Z,23.62
2018-02-05T06:12:30.140Z,25.17
2018-02-05T06:13:34.631Z,21.75
2018-02-05T06:14:38.343Z,27.08
2018-02-05T06:15:42.116Z,26.00
2018-02-05T06:16:45.817Z,22.73
2018-02-05T06:17:49.412Z,23.80
2018-02-05T06:18:54.879Z,23.75
2018-02-05T06:19:58.678Z,25.10
2018-02-05T06:21:02.956Z,25.23
2018-02-05T06:22:06.556Z,24.77
2018-02-05T06:23:10.213Z,26.48
2018-02-05T06:24:13.813Z,26.05
2018-02-05T06:25:17.414Z,26.08
2018-02-05T06:26:21.069Z,24.10
2018-02-05T06:27:25.517Z,24.15
2018-02-05T06:28:28.909Z,29.17
2018-02-05T06:29:32.752Z,26.65
2018-02-05T06:30:36.504Z,22.42
2018-02-05T06:31:41.197Z,25.95
2018-02-05T06:32:44.843Z,26.25
2018-02-05T06:33:49.411Z,27.27
2018-02-05T06:34:53.236Z,26.27
2018-02-05T06:35:57.036Z,25.65
2018-02-05T06:37:00.984Z,25.88
2018-02-05T06:38:04.701Z,25.27
2018-02-05T06:39:08.292Z,28.55
2018-02-05T06:40:13.318Z,26.45
2018-02-05T06:41:17.362Z,23.33
2018-02-05T06:42:21.884Z,26.95
2018-02-05T06:43:25.757Z,31.45
2018-02-05T06:44:29.392Z,27.02
2018-02-05T06:45:33.873Z,27.33
2018-02-05T06:46:38.074Z,30.27
2018-02-05T06:47:42.704Z,30.33
2018-02-05T06:48:46.240Z,28.62
2018-02-05T06:49:49.960Z,25.05
2018-02-05T06:51:05.547Z,26.80
2018-02-05T06:52:23.663Z,29.60
2018-02-05T06:55:13.730Z,26.58
2018-02-05T06:56:25.879Z,29.33
2018-02-05T06:57:29.567Z,28.10
2018-02-05T06:58:33.043Z,27.80
2018-02-05T06:59:37.722Z,26.92
2018-02-05T07:00:41.512Z,33.47
2018-02-05T07:01:45.323Z,28.62
2018-02-05T07:02:49.026Z,27.20
2018-02-05T07:03:52.962Z,25.08
2018-02-05T07:04:56.728Z,28.30
2018-02-05T07:06:00.783Z,24.12
2018-02-05T07:07:04.581Z,26.77
2018-02-05T07:08:08.503Z,27.90
2018-02-05T07:09:12.337Z,27.70
2018-02-05T07:10:16.248Z,28.17
2018-02-05T07:11:20.013Z,27.62
2018-02-05T07:12:23.740Z,28.52
2018-02-05T07:13:27.913Z,28.58
2018-02-05T07:14:31.477Z,27.05
2018-02-05T07:15:35.271Z,26.40
2018-02-05T07:16:39.174Z,30.65
2018-02-05T07:17:42.980Z,27.42
2018-02-05T07:18:47.079Z,26.30
2018-02-05T07:19:50.923Z,30.37
2018-02-05T07:20:54.706Z,26.87
2018-02-05T07:21:58.398Z,26.58
2018-02-05T07:23:02.897Z,30.02
2018-02-05T07:24:07.243Z,24.10
2018-02-05T07:25:11.199Z,23.87
2018-02-05T07:26:14.572Z,26.35
2018-02-05T07:27:18.320Z,25.27
2018-02-05T07:28:21.989Z,21.98
2018-02-05T07:29:26.515Z,23.75
2018-02-05T07:30:30.116Z,22.90
2018-02-05T07:31:33.752Z,23.67
2018-02-05T07:32:37.987Z,22.05
2018-02-05T07:33:43.268Z,22.00
2018-02-05T07:34:47.141Z,26.35
2018-02-05T07:35:50.880Z,26.98
2018-02-05T07:36:54.422Z,24.35
2018-02-05T07:37:58.237Z,28.45
2018-02-05T07:39:02.078Z,25.88
2018-02-05T07:40:05.546Z,24.75
2018-02-05T07:41:09.261Z,26.15
2018-02-05T07:42:14.372Z,24.92
2018-02-05T07:43:18.535Z,24.70
2018-02-05T07:44:22.600Z,23.00
2018-02-05T07:45:26.330Z,24.58
2018-02-05T07:46:31.164Z,26.75
2018-02-05T07:47:35.124Z,22.52
2018-02-05T07:48:39.804Z,28.83
2018-02-05T07:49:43.627Z,23.67
2018-02-05T07:50:47.084Z,23.87
2018-02-05T07:51:50.599Z,24.17
2018-02-05T07:52:54.529Z,22.05
2018-02-05T07:53:59.371Z,21.85
2018-02-05T07:55:04.036Z,21.70
2018-02-05T07:56:08.646Z,22.73
2018-02-05T07:57:12.318Z,23.80
2018-02-05T07:58:16.116Z,20.08
2018-02-05T07:59:19.680Z,24.85
2018-02-05T08:00:23.582Z,23.30
2018-02-05T08:01:27.161Z,23.83
2018-02-05T08:02:30.781Z,28.02
2018-02-05T08:03:34.301Z,23.65
2018-02-05T08:04:38.214Z,22.48
2018-02-05T08:05:42.810Z,24.65
2018-02-05T08:06:46.303Z,24.05
2018-02-05T08:07:50.143Z,21.77
2018-02-05T08:08:54.707Z,24.63
2018-02-05T08:09:58.638Z,23.10
2018-02-05T08:11:03.038Z,20.70
2018-02-05T08:12:07.503Z,21.77
2018-02-05T08:13:11.074Z,23.08
2018-02-05T08:14:14.860Z,21.90
2018-02-05T08:15:18.696Z,25.33
2018-02-05T08:16:22.207Z,23.73
2018-02-05T08:17:25.903Z,21.55
2018-02-05T08:18:30.102Z,22.50
2018-02-05T08:19:33.816Z,22.60
2018-02-05T08:20:38.091Z,22.50
2018-02-05T08:21:41.659Z,24.00
2018-02-05T08:22:46.084Z,23.45
2018-02-05T08:23:49.960Z,20.67
2018-02-05T08:24:53.625Z,21.65
2018-02-05T08:25:57.915Z,22.77
2018-02-05T08:27:02.527Z,23.17
2018-02-05T08:28:06.390Z,19.35
2018-02-05T08:29:10.474Z,20.83
2018-02-05T08:30:15.222Z,20.33
2018-02-05T08:31:18.961Z,19.42
2018-02-05T08:32:22.669Z,22.13
2018-02-05T08:33:26.487Z,18.83
2018-02-05T08:34:30.306Z,18.98
2018-02-05T08:35:34.217Z,21.45
2018-02-05T08:36:38.115Z,18.52
2018-02-05T08:37:42.637Z,18.35
2018-02-05T08:38:46.307Z,20.27
2018-02-05T08:39:50.028Z,25.17
2018-02-05T08:40:54.021Z,21.35
2018-02-05T08:42:01.727Z,20.00
2018-02-05T08:43:06.013Z,21.20
2018-02-05T08:44:09.942Z,20.75
2018-02-05T08:45:14.328Z,19.52
2018-02-05T08:46:18.207Z,19.65
2018-02-05T08:47:22.121Z,19.40
2018-02-05T08:48:25.873Z,18.77
2018-02-05T08:49:30.278Z,19.62
2018-02-05T08:50:33.793Z,17.87
2018-02-05T08:51:37.335Z,19.90
2018-02-05T08:52:41.124Z,20.35
2018-02-05T08:53:45.319Z,21.27
2018-02-05T08:54:48.939Z,23.05
2018-02-05T08:55:52.602Z,21.45
2018-02-05T08:56:57.214Z,21.70
2018-02-05T08:58:01.002Z,25.27
2018-02-05T08:59:04.912Z,22.92
2018-02-05T09:00:08.756Z,21.87
2018-02-05T09:01:13.109Z,24.40
2018-02-05T09:02:17.051Z,25.20
2018-02-05T09:03:20.922Z,23.40
2018-02-05T09:04:24.857Z,23.02
2018-02-05T09:05:28.480Z,24.23
2018-02-05T09:06:33.068Z,22.27
2018-02-05T09:07:36.726Z,22.48
2018-02-05T09:08:40.223Z,20.90
2018-02-05T09:09:43.933Z,24.37
2018-02-05T09:10:47.623Z,24.48
2018-02-05T09:11:51.070Z,23.95
2018-02-05T09:12:55.218Z,22.23
2018-02-05T09:13:59.183Z,23.80
2018-02-05T09:15:03.015Z,25.12
2018-02-05T09:16:06.756Z,21.00
2018-02-05T09:17:11.260Z,20.45
2018-02-05T09:18:15.638Z,21.12
2018-02-05T09:19:19.369Z,19.58
2018-02-05T09:20:23.067Z,24.58
2018-02-05T09:21:26.786Z,19.85
2018-02-05T09:22:30.890Z,22.67
2018-02-05T09:23:35.235Z,21.33
2018-02-05T09:24:38.995Z,21.80
2018-02-05T09:25:43.734Z,22.50
2018-02-05T09:26:47.580Z,22.23
2018-02-05T09:27:51.989Z,21.40
2018-02-05T09:28:56.293Z,22.77
2018-02-05T09:30:00.562Z,25.85
2018-02-05T09:31:04.120Z,22.87
2018-02-05T09:32:07.851Z,24.10
2018-02-05T09:33:12.292Z,24.60
2018-02-05T09:34:16.865Z,25.83
2018-02-05T09:35:20.482Z,24.75
2018-02-05T09:36:24.087Z,23.62
2018-02-05T09:37:28.660Z,27.98
2018-02-05T09:38:32.293Z,27.10
2018-02-05T09:39:36.801Z,25.92
2018-02-05T09:40:41.335Z,27.73
2018-02-05T09:41:45.601Z,29.45
2018-02-05T09:42:49.394Z,27.80
2018-02-05T09:43:53.998Z,27.95
2018-02-05T09:44:58.407Z,26.83
2018-02-05T09:46:02.130Z,27.73
2018-02-05T09:47:05.796Z,28.23
2018-02-05T09:48:09.387Z,31.50
2018-02-05T09:49:12.949Z,30.17
2018-02-05T09:50:16.831Z,31.98
2018-02-05T09:51:20.472Z,30.50
2018-02-05T09:52:24.430Z,28.20
2018-02-05T09:53:28.293Z,29.60
2018-02-05T09:54:31.897Z,27.23
2018-02-05T09:55:35.583Z,28.75
2018-02-05T09:56:39.959Z,29.77
2018-02-05T09:57:43.757Z,27.60
2018-02-05T09:58:47.457Z,24.95
2018-02-05T09:59:50.940Z,29.65
2018-02-05T10:00:54.616Z,26.48
2018-02-05T10:01:58.456Z,27.25
2018-02-05T10:03:02.301Z,28.40
2018-02-05T10:04:06.236Z,28.45
2018-02-05T10:05:09.820Z,25.45
2018-02-05T10:06:13.523Z,24.42
2018-02-05T10:07:17.310Z,26.58
2018-02-05T10:08:21.200Z,26.60
2018-02-05T10:09:25.090Z,25.67
2018-02-05T10:10:28.997Z,24.92
2018-02-05T10:11:33.031Z,25.40
2018-02-05T10:12:37.625Z,23.92
2018-02-05T10:13:42.246Z,30.65
2018-02-05T10:14:46.026Z,26.98
2018-02-05T10:15:49.757Z,27.17
2018-02-05T10:16:54.331Z,28.10
2018-02-05T10:17:57.988Z,25.15
2018-02-05T10:19:01.933Z,27.40
2018-02-05T10:20:05.609Z,27.35
2018-02-05T10:21:10.329Z,27.35
2018-02-05T10:22:14.690Z,27.05
2018-02-05T10:23:19.498Z,27.80
2018-02-05T10:24:23.068Z,24.83
2018-02-05T10:25:26.719Z,27.90
2018-02-05T10:26:30.279Z,26.10
2018-02-05T10:27:34.083Z,24.87
2018-02-05T10:28:38.402Z,25.27
2018-02-05T10:29:42.883Z,25.42
2018-02-05T10:30:46.761Z,25.48
2018-02-05T10:31:51.222Z,25.65
2018-02-05T10:32:54.874Z,24.58
2018-02-05T10:33:58.872Z,24.83
2018-02-05T10:35:03.418Z,26.00
2018-02-05T10:36:07.443Z,26.52
2018-02-05T10:37:12.339Z,27.33
2018-02-05T10:38:18.782Z,23.58
2018-02-05T10:39:24.196Z,29.52
2018-02-05T10:40:28.090Z,24.02
2018-02-05T10:41:31.747Z,25.83
2018-02-05T10:42:35.547Z,24.75
2018-02-05T10:43:39.304Z,27.23
2018-02-05T10:44:43.954Z,24.30
2018-02-05T10:45:50.000Z,24.58
2018-02-05T10:46:53.865Z,24.52
2018-02-05T10:47:57.531Z,23.45
2018-02-05T10:49:01.087Z,25.08
2018-02-05T10:50:05.486Z,24.10
2018-02-05T10:51:09.430Z,23.00
2018-02-05T10:52:14.097Z,25.05
2018-02-05T10:53:17.595Z,24.27
2018-02-05T10:54:22.100Z,25.77
2018-02-05T10:55:25.742Z,24.42
2018-02-05T10:56:30.455Z,25.10
2018-02-05T10:57:34.011Z,24.63
2018-02-05T10:58:37.540Z,23.60
2018-02-05T10:59:41.486Z,24.67
2018-02-05T11:00:46.330Z,25.77
2018-02-05T11:01:50.235Z,28.50
2018-02-05T11:02:54.703Z,25.60
2018-02-05T11:03:58.981Z,22.65
2018-02-05T11:05:03.603Z,22.42
2018-02-05T11:06:08.173Z,22.75
2018-02-05T11:07:12.159Z,22.73
2018-02-05T11:08:15.925Z,22.15
2018-02-05T11:09:19.664Z,22.92
2018-02-05T11:10:24.161Z,22.27
2018-02-05T11:11:27.932Z,23.05
2018-02-05T11:12:31.663Z,24.83
2018-02-05T11:13:36.213Z,24.17
2018-02-05T11:14:40.464Z,25.25
2018-02-05T11:15:44.678Z,24.00
2018-02-05T11:16:48.396Z,22.17
2018-02-05T11:17:52.190Z,25.02
2018-02-05T11:18:57.392Z,25.58
2018-02-05T11:20:01.204Z,22.95
2018-02-05T11:21:04.722Z,22.67
2018-02-05T11:22:08.291Z,22.25
2018-02-05T11:23:11.997Z,22.55
2018-02-05T11:24:15.706Z,26.90
2018-02-05T11:25:20.160Z,21.42
2018-02-05T11:26:23.969Z,22.35
2018-02-05T11:27:27.547Z,21.70
2018-02-05T11:28:31.379Z,22.70
2018-02-05T11:29:35.038Z,22.30
2018-02-05T11:30:38.863Z,20.60
2018-02-05T11:31:42.483Z,21.45
2018-02-05T11:32:47.252Z,27.23
2018-02-05T11:33:51.093Z,22.08
2018-02-05T11:34:54.801Z,20.60
2018-02-05T11:35:59.337Z,24.58
2018-02-05T11:37:03.106Z,20.67
2018-02-05T11:38:07.420Z,22.33
2018-02-05T11:39:11.904Z,22.85
2018-02-05T11:40:15.890Z,19.58
2018-02-05T11:41:19.561Z,22.45
2018-02-05T11:42:23.418Z,20.00
2018-02-05T11:43:27.828Z,18.67
2018-02-05T11:44:32.305Z,19.80
2018-02-05T11:45:35.949Z,17.33
2018-02-05T11:46:41.049Z,20.02
2018-02-05T11:47:44.634Z,19.60
2018-02-05T11:48:48.472Z,18.83
2018-02-05T11:49:52.121Z,18.05
2018-02-05T11:50:56.016Z,17.85
2018-02-05T11:52:00.541Z,18.30
2018-02-05T11:53:05.055Z,17.50
2018-02-05T11:54:09.996Z,18.02
2018-02-05T11:55:14.348Z,17.80
2018-02-05T11:56:18.055Z,19.23
2018-02-05T11:57:21.659Z,19.45
2018-02-05T11:58:25.260Z,18.73
2018-02-05T11:59:28.809Z,18.33
2018-02-05T12:00:32.781Z,19.87
2018-02-05T12:01:36.393Z,17.20
2018-02-05T12:02:39.850Z,17.62
2018-02-05T12:03:44.246Z,17.50
2018-02-05T12:04:48.728Z,17.83
2018-02-05T12:05:52.339Z,16.80
2018-02-05T12:06:56.116Z,18.05
2018-02-05T12:07:59.728Z,16.30
2018-02-05T12:09:03.751Z,17.98
2018-02-05T12:10:08.402Z,16.83
2018-02-05T12:11:12.051Z,15.50
2018-02-05T12:12:16.372Z,17.08
2018-02-05T12:13:20.250Z,16.45
2018-02-05T12:14:24.227Z,19.42
2018-02-05T12:15:27.973Z,17.02
2018-02-05T12:16:31.710Z,16.87
2018-02-05T12:17:35.546Z,17.98
2018-02-05T12:18:40.075Z,16.60
2018-02-05T12:19:43.752Z,18.48
2018-02-05T12:20:48.555Z,17.83
2018-02-05T12:21:52.038Z,19.60
2018-02-05T12:22:55.918Z,17.60
2018-02-05T12:23:59.984Z,18.35
2018-02-05T12:25:04.127Z,17.75
2018-02-05T12:26:07.945Z,19.73
2018-02-05T12:27:12.618Z,18.40
2018-02-05T12:28:16.552Z,19.80
2018-02-05T12:29:21.828Z,20.17
2018-02-05T12:30:25.572Z,18.35
2018-02-05T12:31:30.233Z,19.50
2018-02-05T12:32:38.273Z,17.95
2018-02-05T12:33:41.958Z,18.48
2018-02-05T12:34:46.295Z,23.45
2018-02-05T12:35:49.880Z,19.98
2018-02-05T12:36:53.409Z,20.58
2018-02-05T12:37:57.393Z,17.48
2018-02-05T12:39:00.790Z,18.05
2018-02-05T12:40:05.166Z,19.90
2018-02-05T12:41:09.323Z,20.37
2018-02-05T12:42:13.181Z,19.85
2018-02-05T12:43:16.922Z,18.95
2018-02-05T12:44:20.632Z,17.95
2018-02-05T12:45:24.832Z,20.00
2018-02-05T12:46:29.457Z,21.30
2018-02-05T12:47:32.973Z,18.00
2018-02-05T12:48:36.688Z,18.58
2018-02-05T12:49:40.594Z,20.15
2018-02-05T12:50:44.922Z,19.08
2018-02-05T12:51:48.561Z,19.27
2018-02-05T12:52:52.452Z,22.15
2018-02-05T12:53:56.354Z,20.77
2018-02-05T12:55:00.005Z,20.37
2018-02-05T12:56:04.459Z,19.45
2018-02-05T12:57:08.180Z,21.35
2018-02-05T12:58:11.955Z,19.35
2018-02-05T12:59:15.734Z,21.55
2018-02-05T13:00:37.187Z,20.37
2018-02-05T13:01:41.693Z,22.08
2018-02-05T13:02:46.992Z,19.37
2018-02-05T13:03:52.566Z,19.75
2018-02-05T13:04:57.350Z,19.33
2018-02-05T13:06:15.636Z,21.52
2018-02-05T13:07:19.482Z,22.67
2018-02-05T13:08:23.307Z,21.73
2018-02-05T13:09:26.780Z,24.90
2018-02-05T13:10:30.461Z,19.67
2018-02-05T13:11:34.296Z,20.17
2018-02-05T13:12:38.990Z,21.70
2018-02-05T13:13:42.633Z,22.83
2018-02-05T13:14:46.426Z,20.25
2018-02-05T13:15:50.417Z,21.52
2018-02-05T13:16:54.225Z,22.83
2018-02-05T13:17:57.813Z,22.65
2018-02-05T13:19:01.729Z,19.67
2018-02-05T13:20:05.548Z,20.73
2018-02-05T13:21:09.250Z,20.83
2018-02-05T13:22:12.731Z,21.98
2018-02-05T13:23:16.320Z,19.75
2018-02-05T13:24:20.157Z,23.30
2018-02-05T13:25:23.857Z,20.95
2018-02-05T13:26:28.489Z,21.30
2018-02-05T13:27:31.941Z,21.83
2018-02-05T13:28:37.023Z,22.20
2018-02-05T13:29:40.628Z,21.20
2018-02-05T13:30:44.431Z,21.48
2018-02-05T13:31:48.187Z,22.75
2018-02-05T13:32:51.816Z,21.58
2018-02-05T13:33:55.300Z,21.05
2018-02-05T13:34:58.957Z,22.20
2018-02-05T13:36:02.531Z,22.62
2018-02-05T13:37:07.094Z,23.65
2018-02-05T13:38:11.111Z,19.90
2018-02-05T13:39:15.604Z,24.10
2018-02-05T13:40:19.316Z,21.58
2018-02-05T13:41:22.981Z,22.05
2018-02-05T13:42:27.247Z,21.33
2018-02-05T13:43:31.886Z,21.27
2018-02-05T13:44:35.724Z,23.60
2018-02-05T13:45:39.267Z,22.23
2018-02-05T13:46:43.050Z,21.87